Time;durP1;ratioP1;P1;durP2;ratioP2;P2;SDS_P1;SDS_P2;PMS_P1;PMS_P2;Temp;Humidity;BMP_temperature;BMP_pressure;BME280_temperature;BME280_humidity;BME280_pressure;Samples;Min_cycle;Max_cycle;Signal;HPM_P1;HPM_P2
2023/03/03 00:02:02;;;;;;;1.73;1.63;;;;;;;;;;5145702;27;20481;-56
2023/03/03 00:04:28;;;;;;;2.22;2.03;;;;;;;;;;5146354;27;20039;-58
2023/03/03 00:06:54;;;;;;;3.10;2.67;;;;;;;;;;5145754;27;20091;-56
2023/03/03 00:09:20;;;;;;;2.35;2.15;;;;;;;;;;5146010;27;20441;-56
2023/03/03 00:11:49;;;;;;;2.40;2.20;;;;;;;;;;5146161;27;20504;-57
2023/03/03 00:14:22;;;;;;;2.53;2.33;;;;;;;;;;5146236;27;20053;-54
2023/03/03 00:16:48;;;;;;;2.22;2.03;;;;;;;;;;5145723;27;20034;-55
2023/03/03 00:19:16;;;;;;;2.33;2.10;;;;;;;;;;5145851;27;20515;-55
2023/03/03 00:21:45;;;;;;;2.40;2.20;;;;;;;;;;5145370;27;20043;-55
2023/03/03 00:24:14;;;;;;;3.25;2.63;;;;;;;;;;5145507;27;20045;-55
2023/03/03 00:26:41;;;;;;;3.10;2.80;;;;;;;;;;5145236;27;20046;-55
2023/03/03 00:29:25;;;;;;;2.75;2.40;;;;;;;;;;5144898;27;20089;-55
2023/03/03 00:31:51;;;;;;;2.80;2.47;;;;;;;;;;5146111;27;20099;-55
2023/03/03 00:34:18;;;;;;;2.78;2.58;;;;;;;;;;5146447;27;20122;-55
2023/03/03 00:36:45;;;;;;;3.38;3.03;;;;;;;;;;5144987;27;20046;-52
2023/03/03 00:39:14;;;;;;;3.42;3.08;;;;;;;;;;5145390;27;20034;-57
2023/03/03 00:41:40;;;;;;;2.80;2.50;;;;;;;;;;5146097;27;20085;-55
2023/03/03 00:44:26;;;;;;;3.28;2.90;;;;;;;;;;5145516;27;20103;-55
2023/03/03 00:46:53;;;;;;;2.40;2.20;;;;;;;;;;5149008;27;20063;-54
2023/03/03 00:49:23;;;;;;;2.88;2.53;;;;;;;;;;5150193;27;20047;-54
2023/03/03 00:51:49;;;;;;;2.75;2.35;;;;;;;;;;5149564;27;20045;-55
2023/03/03 00:54:15;;;;;;;2.15;1.95;;;;;;;;;;5149362;27;20042;-55
2023/03/03 00:56:41;;;;;;;2.47;1.75;;;;;;;;;;5149049;27;20046;-55
2023/03/03 00:59:07;;;;;;;2.42;2.00;;;;;;;;;;5149586;27;20046;-55
2023/03/03 01:01:33;;;;;;;3.65;2.60;;;;;;;;;;5149772;27;20130;-55
2023/03/03 01:03:59;;;;;;;3.33;2.88;;;;;;;;;;5148988;27;20129;-55
2023/03/03 01:06:25;;;;;;;4.18;3.42;;;;;;;;;;5148993;27;20131;-55
2023/03/03 01:08:51;;;;;;;3.58;3.22;;;;;;;;;;5149487;27;20415;-55
2023/03/03 01:11:22;;;;;;;3.97;3.58;;;;;;;;;;5149110;27;20053;-54
2023/03/03 01:13:50;;;;;;;4.35;3.85;;;;;;;;;;5149496;27;20606;-54
2023/03/03 01:16:16;;;;;;;5.68;4.72;;;;;;;;;;5149126;27;20125;-54
2023/03/03 01:18:42;;;;;;;4.57;4.18;;;;;;;;;;5148584;27;20050;-54
2023/03/03 01:21:08;;;;;;;4.07;3.67;;;;;;;;;;5148995;27;20046;-53
2023/03/03 01:23:34;;;;;;;3.95;3.60;;;;;;;;;;5148510;27;20416;-55
2023/03/03 01:26:01;;;;;;;3.00;2.70;;;;;;;;;;5147932;27;20043;-55
2023/03/03 01:28:27;;;;;;;3.40;2.72;;;;;;;;;;5148564;27;20811;-57
2023/03/03 01:30:53;;;;;;;2.47;2.28;;;;;;;;;;5147932;27;20097;-56
2023/03/03 01:33:19;;;;;;;2.53;2.30;;;;;;;;;;5148772;27;20072;-55
2023/03/03 01:35:48;;;;;;;2.22;2.03;;;;;;;;;;5148831;27;20074;-55
2023/03/03 01:38:14;;;;;;;2.50;2.13;;;;;;;;;;5148442;27;20047;-54
2023/03/03 01:40:41;;;;;;;2.05;1.85;;;;;;;;;;5147778;27;20038;-54
2023/03/03 01:43:07;;;;;;;2.13;1.95;;;;;;;;;;5148182;27;20922;-55
2023/03/03 01:45:48;;;;;;;2.40;2.20;;;;;;;;;;5148511;27;20039;-55
2023/03/03 01:48:18;;;;;;;2.58;2.38;;;;;;;;;;5147382;27;20038;-55
2023/03/03 01:51:02;;;;;;;2.25;2.03;;;;;;;;;;5148081;27;20106;-55
2023/03/03 01:53:30;;;;;;;2.10;1.90;;;;;;;;;;5148100;27;20090;-55
2023/03/03 01:55:56;;;;;;;2.00;1.80;;;;;;;;;;5147974;27;20046;-55
2023/03/03 01:58:27;;;;;;;2.00;1.80;;;;;;;;;;5147113;27;20043;-55
2023/03/03 02:00:56;;;;;;;2.35;2.05;;;;;;;;;;5147507;27;20046;-55
2023/03/03 02:03:23;;;;;;;2.65;2.45;;;;;;;;;;5148025;27;20774;-55
2023/03/03 02:05:50;;;;;;;2.50;2.30;;;;;;;;;;5148379;27;20050;-57
2023/03/03 02:08:18;;;;;;;3.55;3.25;;;;;;;;;;5147735;27;20297;-57
2023/03/03 02:10:45;;;;;;;2.95;2.70;;;;;;;;;;5147825;27;20046;-57
2023/03/03 02:13:12;;;;;;;3.05;2.63;;;;;;;;;;5147620;27;20769;-57
2023/03/03 02:15:39;;;;;;;3.38;3.03;;;;;;;;;;5146995;27;20478;-57
2023/03/03 02:18:06;;;;;;;3.00;2.70;;;;;;;;;;5147514;27;20049;-59
2023/03/03 02:20:47;;;;;;;3.53;3.22;;;;;;;;;;5148157;27;20125;-57
2023/03/03 02:23:23;;;;;;;3.15;2.85;;;;;;;;;;5147070;27;20047;-57
2023/03/03 02:25:55;;;;;;;3.50;3.20;;;;;;;;;;5148297;27;20043;-59
2023/03/03 02:28:22;;;;;;;3.60;3.30;;;;;;;;;;5147775;27;20054;-55
2023/03/03 02:30:48;;;;;;;2.38;2.17;;;;;;;;;;5148052;27;20049;-55
2023/03/03 02:33:14;;;;;;;2.97;2.72;;;;;;;;;;5147196;27;20151;-55
2023/03/03 02:35:41;;;;;;;3.25;2.95;;;;;;;;;;5128037;27;20103;-55
2023/03/03 02:38:12;;;;;;;3.08;2.70;;;;;;;;;;5147073;27;20066;-57
2023/03/03 02:40:40;;;;;;;2.85;2.55;;;;;;;;;;5148285;27;20047;-55
2023/03/03 02:43:06;;;;;;;2.97;2.67;;;;;;;;;;5147084;27;20049;-57
2023/03/03 02:45:32;;;;;;;3.28;2.83;;;;;;;;;;5147262;27;20047;-55
2023/03/03 02:47:58;;;;;;;3.38;3.08;;;;;;;;;;5147004;27;20145;-54
2023/03/03 02:50:24;;;;;;;3.63;3.20;;;;;;;;;;5146644;27;20086;-55
2023/03/03 02:52:50;;;;;;;4.18;3.78;;;;;;;;;;5147434;27;20099;-54
2023/03/03 02:55:16;;;;;;;3.50;3.20;;;;;;;;;;5147222;27;20047;-54
2023/03/03 02:57:42;;;;;;;3.90;3.50;;;;;;;;;;5127720;27;20134;-55
2023/03/03 03:00:09;;;;;;;3.42;2.97;;;;;;;;;;5146988;27;20047;-55
2023/03/03 03:02:35;;;;;;;3.25;2.95;;;;;;;;;;5147406;27;20599;-55
2023/03/03 03:05:01;;;;;;;2.97;2.78;;;;;;;;;;5145483;27;20049;-55
2023/03/03 03:07:27;;;;;;;3.40;3.05;;;;;;;;;;5146858;27;20134;-55
2023/03/03 03:09:53;;;;;;;3.67;3.08;;;;;;;;;;5146300;27;20125;-54
2023/03/03 03:12:20;;;;;;;3.63;3.33;;;;;;;;;;5146398;27;20077;-55
2023/03/03 03:14:46;;;;;;;3.75;3.22;;;;;;;;;;5146109;27;20153;-55
2023/03/03 03:17:12;;;;;;;3.67;3.33;;;;;;;;;;5145964;27;20372;-55
2023/03/03 03:19:38;;;;;;;3.38;3.08;;;;;;;;;;5145870;27;20049;-55
2023/03/03 03:22:04;;;;;;;3.03;2.72;;;;;;;;;;5146792;27;20063;-54
2023/03/03 03:24:30;;;;;;;3.33;3.03;;;;;;;;;;5145964;27;20069;-55
2023/03/03 03:26:56;;;;;;;3.30;3.00;;;;;;;;;;5146391;27;20046;-55
2023/03/03 03:29:22;;;;;;;3.03;2.72;;;;;;;;;;5146598;27;20046;-55
2023/03/03 03:31:48;;;;;;;3.15;2.85;;;;;;;;;;5146438;27;20397;-56
2023/03/03 03:34:14;;;;;;;2.78;2.50;;;;;;;;;;5146250;27;20046;-55
2023/03/03 03:36:41;;;;;;;3.35;2.63;;;;;;;;;;5146644;27;20030;-55
2023/03/03 03:39:08;;;;;;;3.63;3.30;;;;;;;;;;5145618;27;20062;-55
2023/03/03 03:41:34;;;;;;;2.90;2.67;;;;;;;;;;5146573;27;20045;-57
2023/03/03 03:44:00;;;;;;;3.90;3.17;;;;;;;;;;5146739;27;20042;-55
2023/03/03 03:46:26;;;;;;;2.40;2.20;;;;;;;;;;5146277;27;20049;-55
2023/03/03 03:48:52;;;;;;;2.88;2.55;;;;;;;;;;5147136;27;20093;-55
2023/03/03 03:51:18;;;;;;;2.55;2.20;;;;;;;;;;5146715;27;20047;-55
2023/03/03 03:53:44;;;;;;;2.50;2.30;;;;;;;;;;5145724;27;20055;-55
2023/03/03 03:56:10;;;;;;;3.15;2.47;;;;;;;;;;5145777;27;20048;-55
2023/03/03 03:58:36;;;;;;;2.38;2.17;;;;;;;;;;5146263;27;20039;-55
2023/03/03 04:01:06;;;;;;;2.72;2.33;;;;;;;;;;5145241;27;20536;-55
2023/03/03 04:03:32;;;;;;;2.47;2.25;;;;;;;;;;5146533;27;20130;-56
2023/03/03 04:05:58;;;;;;;2.42;2.22;;;;;;;;;;5146647;27;20050;-55
2023/03/03 04:08:24;;;;;;;2.88;2.45;;;;;;;;;;5145574;27;20061;-55
2023/03/03 04:10:50;;;;;;;2.63;2.33;;;;;;;;;;5147337;27;20122;-54
2023/03/03 04:13:16;;;;;;;3.75;3.17;;;;;;;;;;5146153;27;20367;-55
2023/03/03 04:15:42;;;;;;;2.83;2.60;;;;;;;;;;5145246;27;20050;-55
2023/03/03 04:18:08;;;;;;;3.50;3.08;;;;;;;;;;5145721;27;20049;-55
2023/03/03 04:20:34;;;;;;;3.63;2.85;;;;;;;;;;5147104;27;20046;-55
2023/03/03 04:23:00;;;;;;;3.58;3.05;;;;;;;;;;5149934;27;20046;-55
2023/03/03 04:25:26;;;;;;;2.72;2.40;;;;;;;;;;5150393;27;20046;-55
2023/03/03 04:27:53;;;;;;;3.03;2.65;;;;;;;;;;5149080;27;20043;-54
2023/03/03 04:30:19;;;;;;;2.55;2.35;;;;;;;;;;5150618;27;20130;-55
2023/03/03 04:32:45;;;;;;;2.90;2.60;;;;;;;;;;5149730;27;20477;-56
2023/03/03 04:35:11;;;;;;;3.63;2.90;;;;;;;;;;5150289;27;20042;-57
2023/03/03 04:37:37;;;;;;;3.50;3.20;;;;;;;;;;5152401;27;20046;-57
2023/03/03 04:40:05;;;;;;;3.50;3.20;;;;;;;;;;5150950;27;20054;-57
2023/03/03 04:42:31;;;;;;;4.00;3.40;;;;;;;;;;5149011;27;20429;-57
2023/03/03 04:44:57;;;;;;;3.10;2.78;;;;;;;;;;5149196;27;20042;-58
2023/03/03 04:47:23;;;;;;;3.35;2.80;;;;;;;;;;5149657;27;20054;-57
2023/03/03 04:49:49;;;;;;;3.33;3.00;;;;;;;;;;5149894;27;20042;-56
2023/03/03 04:52:15;;;;;;;3.33;3.00;;;;;;;;;;5150643;27;20042;-55
2023/03/03 04:54:41;;;;;;;3.65;3.10;;;;;;;;;;5150207;27;20042;-55
2023/03/03 04:57:08;;;;;;;3.70;3.30;;;;;;;;;;5149645;27;20039;-54
2023/03/03 04:59:34;;;;;;;3.15;2.85;;;;;;;;;;5151337;27;20512;-55
2023/03/03 05:02:00;;;;;;;3.15;2.85;;;;;;;;;;5150498;27;20489;-55
2023/03/03 05:04:26;;;;;;;2.78;2.50;;;;;;;;;;5150266;27;20073;-54
2023/03/03 05:06:53;;;;;;;3.20;2.90;;;;;;;;;;5151723;27;20054;-54
2023/03/03 05:09:19;;;;;;;3.40;3.10;;;;;;;;;;5152222;27;20146;-54
2023/03/03 05:11:45;;;;;;;3.00;2.75;;;;;;;;;;5150910;27;20810;-55
2023/03/03 05:14:11;;;;;;;2.75;2.50;;;;;;;;;;5150814;27;20047;-57
2023/03/03 05:16:37;;;;;;;3.95;3.00;;;;;;;;;;5152039;27;20053;-55
2023/03/03 05:19:03;;;;;;;2.85;2.60;;;;;;;;;;5150426;27;20047;-55
2023/03/03 05:21:29;;;;;;;2.58;2.33;;;;;;;;;;5151628;27;20074;-55
2023/03/03 05:23:55;;;;;;;2.78;2.47;;;;;;;;;;5150718;27;20045;-55
2023/03/03 05:26:21;;;;;;;2.63;2.40;;;;;;;;;;5151525;27;20039;-54
2023/03/03 05:28:47;;;;;;;2.38;2.15;;;;;;;;;;5151062;27;20095;-55
2023/03/03 05:31:13;;;;;;;3.08;2.75;;;;;;;;;;5150095;27;20038;-55
2023/03/03 05:33:39;;;;;;;2.25;1.92;;;;;;;;;;5151940;27;20082;-57
2023/03/03 05:36:05;;;;;;;3.08;2.58;;;;;;;;;;5151126;27;20069;-55
2023/03/03 05:38:31;;;;;;;4.07;2.70;;;;;;;;;;5150939;27;20043;-54
2023/03/03 05:40:57;;;;;;;3.03;2.25;;;;;;;;;;5151188;27;20057;-55
2023/03/03 05:43:23;;;;;;;2.85;2.65;;;;;;;;;;5151460;27;20082;-55
2023/03/03 05:45:54;;;;;;;2.53;2.33;;;;;;;;;;5151213;27;20043;-54
2023/03/03 05:48:20;;;;;;;2.30;2.10;;;;;;;;;;5151771;27;20115;-55
2023/03/03 05:50:46;;;;;;;2.40;2.20;;;;;;;;;;5132360;27;20152;-55
2023/03/03 05:53:12;;;;;;;3.00;2.70;;;;;;;;;;5148849;27;20043;-54
2023/03/03 05:55:38;;;;;;;2.58;2.25;;;;;;;;;;5150514;27;20058;-55
2023/03/03 05:58:04;;;;;;;2.40;2.20;;;;;;;;;;5149207;27;20034;-55
2023/03/03 06:00:30;;;;;;;1.83;1.60;;;;;;;;;;5149274;27;20053;-55
2023/03/03 06:02:56;;;;;;;1.95;1.70;;;;;;;;;;5150476;27;20114;-54
2023/03/03 06:05:22;;;;;;;1.98;1.67;;;;;;;;;;5150044;27;20069;-55
2023/03/03 06:07:48;;;;;;;1.73;1.63;;;;;;;;;;5148837;27;20619;-55
2023/03/03 06:10:14;;;;;;;2.40;1.80;;;;;;;;;;5147926;27;20103;-55
2023/03/03 06:12:41;;;;;;;2.03;1.58;;;;;;;;;;5148268;27;20049;-55
2023/03/03 06:15:07;;;;;;;1.38;1.13;;;;;;;;;;5147253;27;20047;-55
2023/03/03 06:17:33;;;;;;;1.88;1.70;;;;;;;;;;5148001;27;20134;-54
2023/03/03 06:19:59;;;;;;;1.38;1.27;;;;;;;;;;5148851;27;20128;-55
2023/03/03 06:22:25;;;;;;;2.00;1.67;;;;;;;;;;5149759;27;20047;-55
2023/03/03 06:24:51;;;;;;;1.80;1.48;;;;;;;;;;5150796;27;20031;-57
2023/03/03 06:27:17;;;;;;;1.33;1.20;;;;;;;;;;5149321;27;20042;-55
2023/03/03 06:29:43;;;;;;;1.25;1.10;;;;;;;;;;5150303;27;20054;-55
2023/03/03 06:32:10;;;;;;;1.08;0.98;;;;;;;;;;5150030;27;20104;-55
2023/03/03 06:34:36;;;;;;;1.50;1.30;;;;;;;;;;5149629;27;20039;-54
2023/03/03 06:37:02;;;;;;;1.40;1.30;;;;;;;;;;5149831;27;20786;-54
2023/03/03 06:39:28;;;;;;;1.40;1.30;;;;;;;;;;5150015;27;20512;-54
2023/03/03 06:41:54;;;;;;;1.02;0.90;;;;;;;;;;5148579;27;20054;-55
2023/03/03 06:44:20;;;;;;;1.25;1.10;;;;;;;;;;5148963;27;20126;-54
2023/03/03 06:46:46;;;;;;;1.75;1.65;;;;;;;;;;5149518;27;20065;-55
2023/03/03 06:49:12;;;;;;;1.50;1.38;;;;;;;;;;5148426;27;20500;-55
2023/03/03 06:51:38;;;;;;;1.58;1.35;;;;;;;;;;5149331;27;20042;-56
2023/03/03 06:54:12;;;;;;;1.35;1.17;;;;;;;;;;5149309;27;20125;-57
2023/03/03 06:56:38;;;;;;;1.83;1.63;;;;;;;;;;5149526;27;20091;-55
2023/03/03 06:59:11;;;;;;;1.23;1.13;;;;;;;;;;5149099;27;20074;-55
2023/03/03 07:01:37;;;;;;;1.42;1.33;;;;;;;;;;5149689;27;20121;-53
2023/03/03 07:04:13;;;;;;;1.42;1.33;;;;;;;;;;5148632;27;20065;-54
2023/03/03 07:06:39;;;;;;;1.40;1.30;;;;;;;;;;5148382;27;20683;-54
2023/03/03 07:09:08;;;;;;;1.23;1.10;;;;;;;;;;5148191;27;20057;-55
2023/03/03 07:11:36;;;;;;;1.45;1.35;;;;;;;;;;5147418;27;20458;-55
2023/03/03 07:14:02;;;;;;;1.33;1.20;;;;;;;;;;5148188;27;20045;-55
2023/03/03 07:16:28;;;;;;;1.58;1.27;;;;;;;;;;5147759;27;20047;-53
2023/03/03 07:18:55;;;;;;;1.30;1.20;;;;;;;;;;5147779;27;20303;-55
2023/03/03 07:21:32;;;;;;;1.40;1.30;;;;;;;;;;5148911;27;20043;-55
2023/03/03 07:23:59;;;;;;;2.28;1.30;;;;;;;;;;5147159;27;20042;-54
2023/03/03 07:26:29;;;;;;;0.90;0.85;;;;;;;;;;5148249;27;20074;-55
2023/03/03 07:29:00;;;;;;;1.23;1.13;;;;;;;;;;5148051;27;20047;-57
2023/03/03 07:31:37;;;;;;;0.95;0.95;;;;;;;;;;5147578;27;20034;-55
2023/03/03 07:34:14;;;;;;;0.90;0.88;;;;;;;;;;5147263;27;20554;-54
2023/03/03 07:36:40;;;;;;;0.70;0.70;;;;;;;;;;5147932;27;20042;-55
2023/03/03 07:39:15;;;;;;;0.95;0.75;;;;;;;;;;5146984;27;20070;-55
2023/03/03 07:41:42;;;;;;;0.60;0.60;;;;;;;;;;5147491;27;20393;-56
2023/03/03 07:44:29;;;;;;;0.55;0.55;;;;;;;;;;5147692;27;20158;-55
2023/03/03 07:46:55;;;;;;;0.70;0.65;;;;;;;;;;5146580;27;20062;-56
2023/03/03 07:49:23;;;;;;;0.43;0.43;;;;;;;;;;5147670;27;20046;-55
2023/03/03 07:51:53;;;;;;;0.50;0.50;;;;;;;;;;5147051;27;20050;-57
2023/03/03 07:54:24;;;;;;;0.50;0.50;;;;;;;;;;5147216;27;20042;-55
2023/03/03 07:56:50;;;;;;;0.40;0.40;;;;;;;;;;5146918;27;20383;-55
2023/03/03 07:59:23;;;;;;;0.70;0.65;;;;;;;;;;5145886;27;20069;-55
2023/03/03 08:01:55;;;;;;;0.65;0.60;;;;;;;;;;5147211;27;20047;-54
2023/03/03 08:04:23;;;;;;;0.70;0.70;;;;;;;;;;5147353;27;20057;-54
2023/03/03 08:06:51;;;;;;;0.52;0.40;;;;;;;;;;5145977;27;20059;-55
2023/03/03 08:09:17;;;;;;;0.50;0.50;;;;;;;;;;5146411;27;20126;-55
2023/03/03 08:11:53;;;;;;;0.55;0.50;;;;;;;;;;5128230;27;20426;-54
2023/03/03 08:14:24;;;;;;;0.70;0.52;;;;;;;;;;5146663;27;20456;-55
2023/03/03 08:16:50;;;;;;;0.67;0.60;;;;;;;;;;5147034;27;20503;-55
2023/03/03 08:19:17;;;;;;;0.98;0.73;;;;;;;;;;5146560;27;20070;-55
2023/03/03 08:21:44;;;;;;;0.80;0.80;;;;;;;;;;5145850;27;20074;-55
2023/03/03 08:24:10;;;;;;;0.50;0.50;;;;;;;;;;5146198;27;20575;-54
2023/03/03 08:26:36;;;;;;;0.70;0.60;;;;;;;;;;5146224;27;20046;-54
2023/03/03 08:29:02;;;;;;;1.00;0.68;;;;;;;;;;5145190;27;20041;-55
2023/03/03 08:31:28;;;;;;;0.98;0.73;;;;;;;;;;5146320;27;20126;-55
2023/03/03 08:33:54;;;;;;;0.63;0.60;;;;;;;;;;5145583;27;20046;-55
2023/03/03 08:36:20;;;;;;;0.80;0.55;;;;;;;;;;5146742;27;20038;-55
2023/03/03 08:38:46;;;;;;;0.60;0.60;;;;;;;;;;5145941;27;20092;-55
2023/03/03 08:41:12;;;;;;;0.82;0.80;;;;;;;;;;5145341;27;20079;-55
2023/03/03 08:43:39;;;;;;;0.60;0.60;;;;;;;;;;5146122;27;20054;-57
2023/03/03 08:46:06;;;;;;;0.65;0.63;;;;;;;;;;5145858;27;20131;-55
2023/03/03 08:48:33;;;;;;;0.80;0.50;;;;;;;;;;5127237;27;20095;-55
2023/03/03 08:50:59;;;;;;;0.70;0.57;;;;;;;;;;5145387;27;20404;-56
2023/03/03 08:53:25;;;;;;;0.65;0.60;;;;;;;;;;5145901;27;20043;-55
2023/03/03 08:55:51;;;;;;;0.50;0.50;;;;;;;;;;5145601;27;20156;-55
2023/03/03 08:58:18;;;;;;;1.77;1.20;;;;;;;;;;5146214;27;20046;-55
2023/03/03 09:00:45;;;;;;;1.00;0.90;;;;;;;;;;5146052;27;20508;-55
2023/03/03 09:03:11;;;;;;;0.98;0.90;;;;;;;;;;5144889;27;20050;-55
2023/03/03 09:05:38;;;;;;;1.00;0.93;;;;;;;;;;5145295;27;20223;-56
2023/03/03 09:08:04;;;;;;;1.30;1.20;;;;;;;;;;5148357;27;20493;-54
2023/03/03 09:10:31;;;;;;;1.13;0.65;;;;;;;;;;5149027;27;20568;-53
2023/03/03 09:13:00;;;;;;;0.93;0.75;;;;;;;;;;5149272;27;20038;-55
2023/03/03 09:15:29;;;;;;;2.17;1.05;;;;;;;;;;5149516;27;20468;-54
2023/03/03 09:18:13;;;;;;;1.20;0.80;;;;;;;;;;5148698;27;20178;-57
2023/03/03 09:20:50;;;;;;;0.95;0.40;;;;;;;;;;5149643;27;20043;-55
2023/03/03 09:23:22;;;;;;;0.60;0.60;;;;;;;;;;5148688;27;20519;-55
2023/03/03 09:25:48;;;;;;;;;;;;;;;;;;5150091;27;20496;-55
2023/03/03 09:28:30;;;;;;;0.30;0.30;;;;;;;;;;5148622;27;19971;-55
2023/03/03 09:30:58;;;;;;;0.30;0.30;;;;;;;;;;5147632;27;20046;-55
2023/03/03 09:33:26;;;;;;;0.40;0.40;;;;;;;;;;5149171;27;20091;-55
2023/03/03 09:35:53;;;;;;;0.65;0.57;;;;;;;;;;5149226;27;20039;-55
2023/03/03 09:38:23;;;;;;;0.40;0.40;;;;;;;;;;5148649;27;20050;-55
2023/03/03 09:41:02;;;;;;;0.40;0.40;;;;;;;;;;5148942;27;20065;-55
2023/03/03 09:43:45;;;;;;;0.63;0.43;;;;;;;;;;5148150;27;20529;-54
2023/03/03 09:46:11;;;;;;;;;;;;;;;;;;5148202;27;20056;-55
2023/03/03 09:48:40;;;;;;;0.40;0.40;;;;;;;;;;5148578;27;20002;-56
2023/03/03 09:51:18;;;;;;;0.55;0.55;;;;;;;;;;5148560;27;20082;-55
2023/03/03 09:53:52;;;;;;;0.52;0.40;;;;;;;;;;5148684;27;20408;-55
2023/03/03 09:56:35;;;;;;;0.35;0.28;;;;;;;;;;5148986;27;20557;-55
2023/03/03 09:59:11;;;;;;;0.20;0.20;;;;;;;;;;5147491;27;20039;-55
2023/03/03 10:01:37;;;;;;;0.28;0.20;;;;;;;;;;5148198;27;20042;-55
2023/03/03 10:04:30;;;;;;;0.40;0.30;;;;;;;;;;5148244;27;20450;-55
2023/03/03 10:07:06;;;;;;;0.65;0.40;;;;;;;;;;5146983;27;20137;-55
2023/03/03 10:09:57;;;;;;;0.30;0.30;;;;;;;;;;5148462;27;20510;-55
2023/03/03 10:12:29;;;;;;;0.60;0.47;;;;;;;;;;5147946;27;20053;-55
2023/03/03 10:15:02;;;;;;;0.98;0.50;;;;;;;;;;5147975;27;20050;-55
2023/03/03 10:17:41;;;;;;;2.65;0.57;;;;;;;;;;5147849;27;20570;-54
2023/03/03 10:20:14;;;;;;;0.40;0.30;;;;;;;;;;5146221;27;20059;-55
2023/03/03 10:22:49;;;;;;;1.42;0.40;;;;;;;;;;5129386;27;20051;-55
2023/03/03 10:25:30;;;;;;;0.40;0.40;;;;;;;;;;5147807;27;20042;-55
2023/03/03 10:28:07;;;;;;;1.30;0.20;;;;;;;;;;5146616;27;20051;-55
2023/03/03 10:30:41;;;;;;;0.93;0.20;;;;;;;;;;5148118;27;20422;-55
2023/03/03 10:33:16;;;;;;;0.98;0.40;;;;;;;;;;5147541;27;20133;-55
2023/03/03 10:35:48;;;;;;;0.28;0.20;;;;;;;;;;5146978;27;20121;-55
2023/03/03 10:38:40;;;;;;;1.83;0.52;;;;;;;;;;5147253;27;20358;-55
2023/03/03 10:41:25;;;;;;;0.73;0.30;;;;;;;;;;5142159;27;20053;-55
2023/03/03 10:43:58;;;;;;;1.70;0.30;;;;;;;;;;5147792;27;20477;-55
2023/03/03 10:46:24;;;;;;;0.80;0.50;;;;;;;;;;5147967;27;20242;-54
2023/03/03 10:48:50;;;;;;;1.98;0.40;;;;;;;;;;5147186;27;20558;-54
2023/03/03 10:51:39;;;;;;;2.40;0.82;;;;;;;;;;5147163;27;20049;-55
2023/03/03 10:54:20;;;;;;;1.67;0.52;;;;;;;;;;5098750;27;20204;-57
2023/03/03 10:56:49;;;;;;;0.63;0.43;;;;;;;;;;5146635;27;20038;-57
2023/03/03 10:59:35;;;;;;;0.63;0.30;;;;;;;;;;5147359;27;20046;-56
2023/03/03 11:02:07;;;;;;;1.88;0.43;;;;;;;;;;5146502;27;20125;-55
2023/03/03 11:04:52;;;;;;;0.75;0.30;;;;;;;;;;5147453;27;20043;-55
2023/03/03 11:07:24;;;;;;;0.95;0.20;;;;;;;;;;5148004;27;20141;-55
2023/03/03 11:10:09;;;;;;;0.47;0.40;;;;;;;;;;5146825;27;20445;-55
2023/03/03 11:12:56;;;;;;;1.20;0.20;;;;;;;;;;5147010;27;20288;-55
2023/03/03 11:15:27;;;;;;;1.35;0.40;;;;;;;;;;5147356;27;20051;-55
2023/03/03 11:18:02;;;;;;;1.30;0.50;;;;;;;;;;5145786;27;20043;-55
2023/03/03 11:20:28;;;;;;;2.10;0.35;;;;;;;;;;5146699;27;20047;-54
2023/03/03 11:23:03;;;;;;;0.80;0.52;;;;;;;;;;5145712;27;20047;-55
2023/03/03 11:25:43;;;;;;;1.38;0.30;;;;;;;;;;5146515;27;20034;-55
2023/03/03 11:28:09;;;;;;;2.90;0.47;;;;;;;;;;5127486;27;20503;-55
2023/03/03 11:30:35;;;;;;;1.70;0.43;;;;;;;;;;5145830;27;20439;-55
2023/03/03 11:33:14;;;;;;;0.40;0.40;;;;;;;;;;5146843;27;20118;-56
2023/03/03 11:35:50;;;;;;;2.45;0.30;;;;;;;;;;5146395;27;20047;-55
2023/03/03 11:38:35;;;;;;;2.30;0.73;;;;;;;;;;5145897;27;20051;-58
2023/03/03 11:41:06;;;;;;;0.65;0.25;;;;;;;;;;5145961;27;20046;-55
2023/03/03 11:43:35;;;;;;;0.82;0.40;;;;;;;;;;5146107;27;20615;-55
2023/03/03 11:46:21;;;;;;;1.52;0.40;;;;;;;;;;5127120;27;20074;-56
2023/03/03 11:48:50;;;;;;;1.85;0.40;;;;;;;;;;5146375;27;20039;-55
2023/03/03 11:51:26;;;;;;;4.13;0.68;;;;;;;;;;5145554;27;20043;-55
2023/03/03 11:54:08;;;;;;;1.83;0.63;;;;;;;;;;5146750;27;20046;-55
2023/03/03 11:56:39;;;;;;;2.53;0.95;;;;;;;;;;5146052;27;20039;-56
2023/03/03 11:59:17;;;;;;;1.25;0.60;;;;;;;;;;5145061;27;20046;-55
2023/03/03 12:01:52;;;;;;;3.08;0.70;;;;;;;;;;5146624;27;20377;-55
2023/03/03 12:04:20;;;;;;;2.22;0.63;;;;;;;;;;5146423;27;20078;-55
2023/03/03 12:07:07;;;;;;;2.67;0.63;;;;;;;;;;5145365;27;20089;-55
2023/03/03 12:09:33;;;;;;;3.42;0.60;;;;;;;;;;5146085;27;20406;-56
2023/03/03 12:12:06;;;;;;;2.28;0.38;;;;;;;;;;5145003;27;20111;-57
2023/03/03 12:14:39;;;;;;;2.08;0.60;;;;;;;;;;5146090;27;20125;-55
2023/03/03 12:17:17;;;;;;;2.53;0.80;;;;;;;;;;5145706;27;20047;-55
2023/03/03 12:20:03;;;;;;;2.47;0.85;;;;;;;;;;5145269;27;20442;-55
2023/03/03 12:22:32;;;;;;;2.88;1.00;;;;;;;;;;5146230;27;20122;-55
2023/03/03 12:25:04;;;;;;;2.40;0.47;;;;;;;;;;5145441;27;20119;-55
2023/03/03 12:27:38;;;;;;;1.95;0.70;;;;;;;;;;5145033;27;20043;-55
2023/03/03 12:30:13;;;;;;;1.20;0.38;;;;;;;;;;5145723;27;20043;-55
2023/03/03 12:32:52;;;;;;;4.18;0.90;;;;;;;;;;5145861;27;20050;-55
2023/03/03 12:35:28;;;;;;;2.00;0.50;;;;;;;;;;5145385;27;20082;-55
2023/03/03 12:37:57;;;;;;;2.83;0.88;;;;;;;;;;5145622;27;20045;-55
2023/03/03 12:40:31;;;;;;;3.90;1.00;;;;;;;;;;5144797;27;20051;-55
2023/03/03 12:43:00;;;;;;;3.47;1.00;;;;;;;;;;5148166;27;20046;-55
2023/03/03 12:45:26;;;;;;;8.10;1.38;;;;;;;;;;5149626;27;20103;-55
2023/03/03 12:48:07;;;;;;;3.63;1.20;;;;;;;;;;5149079;27;20042;-55
2023/03/03 12:50:47;;;;;;;6.18;1.35;;;;;;;;;;5149988;27;20051;-55
2023/03/03 12:53:13;;;;;;;5.57;1.00;;;;;;;;;;5149593;27;20070;-54
2023/03/03 12:55:39;;;;;;;3.90;0.98;;;;;;;;;;5148841;27;20090;-55
2023/03/03 12:58:15;;;;;;;2.70;0.82;;;;;;;;;;5148950;27;20057;-57
2023/03/03 13:01:00;;;;;;;4.55;1.63;;;;;;;;;;5149754;27;20053;-55
2023/03/03 13:03:26;;;;;;;6.05;1.60;;;;;;;;;;5148762;27;20416;-55
2023/03/03 13:06:06;;;;;;;4.03;1.45;;;;;;;;;;5149215;27;20109;-55
2023/03/03 13:08:51;;;;;;;6.53;1.67;;;;;;;;;;5148164;27;20078;-54
2023/03/03 13:11:20;;;;;;;4.97;1.10;;;;;;;;;;5148607;27;20121;-53
2023/03/03 13:13:49;;;;;;;3.30;0.90;;;;;;;;;;5149201;27;20614;-56
2023/03/03 13:16:20;;;;;;;3.33;1.25;;;;;;;;;;5148555;27;20046;-55
2023/03/03 13:18:55;;;;;;;9.60;1.70;;;;;;;;;;5149146;27;20043;-54
2023/03/03 13:21:50;;;;;;;5.78;1.55;;;;;;;;;;5149547;27;20057;-55
2023/03/03 13:24:19;;;;;;;6.38;1.35;;;;;;;;;;5126286;27;20528;-55
2023/03/03 13:27:04;;;;;;;8.82;1.50;;;;;;;;;;5148889;27;20103;-55
2023/03/03 13:29:34;;;;;;;9.43;1.92;;;;;;;;;;5147956;27;20084;-55
2023/03/03 13:32:24;;;;;;;5.68;1.77;;;;;;;;;;5148425;27;20050;-57
2023/03/03 13:34:55;;;;;;;11.48;1.52;;;;;;;;;;5136004;27;20057;-55
2023/03/03 13:37:24;;;;;;;8.23;1.90;;;;;;;;;;5149312;27;20135;-55
2023/03/03 13:39:56;;;;;;;6.75;1.75;;;;;;;;;;5148981;27;20039;-53
2023/03/03 13:42:40;;;;;;;7.40;1.67;;;;;;;;;;5149112;27;20046;-55
2023/03/03 13:45:17;;;;;;;10.32;1.90;;;;;;;;;;5148081;27;20051;-55
2023/03/03 13:47:48;;;;;;;9.25;2.28;;;;;;;;;;5149310;27;20050;-56
2023/03/03 13:50:25;;;;;;;6.93;1.90;;;;;;;;;;5147965;27;20062;-55
2023/03/03 13:53:10;;;;;;;5.43;1.55;;;;;;;;;;5148537;27;20146;-55
2023/03/03 13:55:42;;;;;;;5.03;1.67;;;;;;;;;;5148854;27;20130;-55
2023/03/03 13:58:14;;;;;;;6.00;1.33;;;;;;;;;;5147595;27;20043;-55
2023/03/03 14:00:46;;;;;;;5.30;1.63;;;;;;;;;;5148419;27;20070;-55
2023/03/03 14:03:22;;;;;;;6.97;1.88;;;;;;;;;;5147937;27;20091;-56
2023/03/03 14:05:49;;;;;;;5.05;1.50;;;;;;;;;;5148007;27;20412;-57
2023/03/03 14:08:50;;;;;;;5.85;1.52;;;;;;;;;;5148086;27;20051;-55
2023/03/03 14:11:25;;;;;;;7.05;1.67;;;;;;;;;;5043175;28;20094;-55
2023/03/03 14:13:53;;;;;;;5.75;1.60;;;;;;;;;;5133028;27;20566;-55
2023/03/03 14:16:40;;;;;;;4.30;1.15;;;;;;;;;;5148492;27;20039;-56
2023/03/03 14:19:14;;;;;;;6.65;1.48;;;;;;;;;;5129612;27;20086;-55
2023/03/03 14:21:46;;;;;;;7.75;2.45;;;;;;;;;;5147992;27;20054;-55
2023/03/03 14:24:17;;;;;;;6.38;1.80;;;;;;;;;;5147134;27;20042;-55
2023/03/03 14:26:50;;;;;;;5.10;1.40;;;;;;;;;;5147266;27;20051;-55
2023/03/03 14:29:26;;;;;;;5.72;2.05;;;;;;;;;;5147825;27;20038;-55
2023/03/03 14:31:52;;;;;;;9.95;2.20;;;;;;;;;;5147882;27;20054;-55
2023/03/03 14:34:38;;;;;;;8.38;2.25;;;;;;;;;;5147477;27;20114;-55
2023/03/03 14:37:23;;;;;;;6.05;2.50;;;;;;;;;;5146860;27;20122;-55
2023/03/03 14:39:50;;;;;;;8.25;2.03;;;;;;;;;;5147616;27;20045;-55
2023/03/03 14:42:31;;;;;;;10.25;1.33;;;;;;;;;;5147362;27;20046;-55
2023/03/03 14:44:58;;;;;;;4.93;1.38;;;;;;;;;;5147435;27;20043;-55
2023/03/03 14:47:27;;;;;;;7.63;1.17;;;;;;;;;;5146762;27;20057;-55
2023/03/03 14:49:54;;;;;;;7.32;1.98;;;;;;;;;;5147037;27;20043;-56
2023/03/03 14:52:20;;;;;;;7.10;2.55;;;;;;;;;;5147536;27;20485;-55
2023/03/03 14:54:47;;;;;;;7.47;1.95;;;;;;;;;;5146549;27;20047;-55
2023/03/03 14:57:18;;;;;;;6.43;1.80;;;;;;;;;;5146961;27;20038;-55
2023/03/03 14:59:58;;;;;;;4.57;1.35;;;;;;;;;;5147269;27;20658;-55
2023/03/03 15:02:29;;;;;;;7.07;1.42;;;;;;;;;;5146446;27;20042;-58